Terminal Aerodrome Forecast
Issued by NWS

Home | Current Version | Previous Version | Text Only | Print | Product List | Glossary On
Versions: 1 2 3 4 5 6 7 8 9 10 11 12 13 14 15 16 17 18 19 20 21 22 23 24 25 26 27 28 29 30 31 32 33 34 35 36 37 38 39 40 41 42 43 44 45 46
000
FTAK31 PANC 142016 AAA
TAFADL
TAF AMD
PADL 142016Z 1420/1518 34010KT P6SM VCSH SCT025 OVC035
     FM142200 02008KT P6SM -RASN BKN015 OVC030
     FM150000 02005KT 4SM -SN BR BKN010 OVC020
     FM150600 02004KT 2SM BR BKN006 OVC012=

USA.gov is the U.S. government's official web portal to all federal, state and local government web resources and services.